This is the latest recevied weather packets stored in our database for station/object N3WPH. If no packets are shown the sender has not sent any weather packets the latest 10 day(s).
| Time | Temp. | Humidity | Pressure | Rain* | Wind** | Luminosity | Snow |
|---|---|---|---|---|---|---|---|
| 1777967588 | 16.67° C | 64% | 1008.2 hPa | 0 mm | - | 0 W/m² | - |
| 1777967285 | 16.67° C | 58% | 1008.9 hPa | 0 mm | - | 0 W/m² | - |
| 1777966982 | 16.67° C | 58% | 1008.5 hPa | 0 mm | - | 0 W/m² | - |
| 1777966679 | 16.67° C | 57% | 1008.5 hPa | 0 mm | - | 0 W/m² | - |
| 1777966377 | 16.67° C | 59% | 1008.1 hPa | 0 mm | - | 0 W/m² | - |
| 1777966074 | 16.67° C | 59% | 1008.3 hPa | 0 mm | - | 0 W/m² | - |
| 1777965770 | 17.22° C | 57% | 1008.2 hPa | 0 mm | - | 0 W/m² | - |
| 1777965466 | 17.22° C | 56% | 1008.6 hPa | 0 mm | - | 0 W/m² | - |
| 1777965162 | 17.78° C | 56% | 1008.3 hPa | 0 mm | - | 0 W/m² | - |
| 1777964860 | 17.78° C | 55% | 1008.2 hPa | 0 mm | - | 0 W/m² | - |
| 1777964556 | 17.22° C | 55% | 1008.5 hPa | 0 mm | - | 0 W/m² | - |
| 1777964252 | 17.22° C | 55% | 1008.3 hPa | 0 mm | - | 0 W/m² | - |
| 1777963949 | 17.22° C | 56% | 1008.2 hPa | 0 mm | - | 0 W/m² | - |
| 1777963646 | 17.22° C | 55% | 1008.3 hPa | 0 mm | - | 0 W/m² | - |
| 1777963344 | 17.22° C | 55% | 1008.3 hPa | 0 mm | - | 0 W/m² | - |
| 1777963041 | 17.22° C | 54% | 1008.6 hPa | 0 mm | - | 0 W/m² | - |
| 1777962737 | 17.78° C | 55% | 1008.6 hPa | 0 mm | - | 0 W/m² | - |
| 1777962433 | 17.78° C | 55% | 1008.6 hPa | 0 mm | - | 0 W/m² | - |
| 1777962132 | 17.78° C | 55% | 1008.7 hPa | 0 mm | - | 0 W/m² | - |
| 1777961828 | 17.22° C | 55% | 1008.6 hPa | 0 mm | - | 0 W/m² | - |
| 1777961526 | 17.22° C | 55% | 1008.6 hPa | 0 mm | - | 0 W/m² | - |
| 1777961223 | 17.22° C | 55% | 1008.7 hPa | 0 mm | - | 0 W/m² | - |
| 1777960920 | 17.22° C | 55% | 1008.9 hPa | 0 mm | - | 0 W/m² | - |
| 1777960615 | 17.22° C | 54% | 1008.7 hPa | 0 mm | - | 0 W/m² | - |
| 1777960312 | 16.67° C | 54% | 1008.7 hPa | 0 mm | - | 0 W/m² | - |
* Rain latest hour (hover to see other rain measurements)
** Current wind speed in m/s (hover to see current wind gust speed)